Time;durP1;ratioP1;P1;durP2;ratioP2;P2;SDS_P1;SDS_P2;PMS_P1;PMS_P2;Temp;Humidity;BMP_temperature;BMP_pressure;BME280_temperature;BME280_humidity;BME280_pressure;Samples;Min_cycle;Max_cycle;Signal;HPM_P1;HPM_P2
2021/05/02 00:02:38;;;;;;;3.63;3.30;;;;;;;;;;10558867;28;20035;-86
2021/05/02 00:07:39;;;;;;;3.97;3.67;;;;;;;;;;10542039;28;20119;-85
2021/05/02 00:12:45;;;;;;;2.75;2.55;;;;;;;;;;10570497;28;20051;-84
2021/05/02 00:17:47;;;;;;;4.20;3.80;;;;;;;;;;10577250;28;20081;-85
2021/05/02 00:22:49;;;;;;;7.13;6.63;;;;;;;;;;10560177;28;20032;-85
2021/05/02 00:27:51;;;;;;;4.97;4.50;;;;;;;;;;10559710;28;20032;-85
2021/05/02 00:32:54;;;;;;;4.15;3.85;;;;;;;;;;10556960;28;20028;-86
2021/05/02 00:37:55;;;;;;;3.92;3.63;;;;;;;;;;10560136;28;20028;-84
2021/05/02 00:43:02;;;;;;;4.38;3.97;;;;;;;;;;10558390;28;20024;-85
2021/05/02 00:48:05;;;;;;;6.85;6.35;;;;;;;;;;10546967;28;20028;-85
2021/05/02 00:53:13;;;;;;;5.97;5.47;;;;;;;;;;10562733;28;20096;-84
2021/05/02 00:58:25;;;;;;;5.63;5.22;;;;;;;;;;10544083;28;20043;-85
2021/05/02 01:03:32;;;;;;;5.90;5.40;;;;;;;;;;10542929;28;20092;-85
2021/05/02 01:08:36;;;;;;;5.45;5.05;;;;;;;;;;10543799;28;20044;-85
2021/05/02 01:13:37;;;;;;;4.10;3.70;;;;;;;;;;10547368;28;20020;-84
2021/05/02 01:18:39;;;;;;;5.00;4.60;;;;;;;;;;10571783;28;20035;-84
2021/05/02 01:23:40;;;;;;;4.50;4.10;;;;;;;;;;10556068;28;20055;-85
2021/05/02 01:28:45;;;;;;;4.78;4.38;;;;;;;;;;10539044;28;20024;-84
2021/05/02 01:33:46;;;;;;;4.78;4.38;;;;;;;;;;10538766;28;20020;-84
2021/05/02 01:38:48;;;;;;;3.83;3.53;;;;;;;;;;10538832;28;20016;-85
2021/05/02 01:43:49;;;;;;;5.00;4.60;;;;;;;;;;10538228;28;20028;-84
2021/05/02 01:48:51;;;;;;;4.82;4.43;;;;;;;;;;10521852;28;20036;-85
2021/05/02 01:53:52;;;;;;;4.13;3.75;;;;;;;;;;10539720;28;20035;-84
2021/05/02 01:58:53;;;;;;;4.05;3.72;;;;;;;;;;10546195;28;20115;-83
2021/05/02 02:03:57;;;;;;;4.40;4.00;;;;;;;;;;10535666;28;20012;-84
2021/05/02 02:08:59;;;;;;;6.80;6.30;;;;;;;;;;10537066;28;20077;-84
2021/05/02 02:14:00;;;;;;;4.95;4.55;;;;;;;;;;10536470;28;20028;-84
2021/05/02 02:19:01;;;;;;;4.00;3.70;;;;;;;;;;10519230;28;20055;-84
2021/05/02 02:24:03;;;;;;;6.95;6.35;;;;;;;;;;10535982;28;20074;-83
2021/05/02 02:29:07;;;;;;;7.75;7.05;;;;;;;;;;10534634;28;20056;-85
2021/05/02 02:34:08;;;;;;;5.85;5.25;;;;;;;;;;10536366;28;20028;-83
2021/05/02 02:39:10;;;;;;;5.68;5.05;;;;;;;;;;10534684;28;20027;-85
2021/05/02 02:44:11;;;;;;;4.35;3.95;;;;;;;;;;10534040;28;20082;-83
2021/05/02 02:49:13;;;;;;;5.05;4.55;;;;;;;;;;10534067;28;20024;-83
2021/05/02 02:54:17;;;;;;;2.97;2.67;;;;;;;;;;10533823;28;20063;-85
2021/05/02 02:59:26;;;;;;;3.10;2.72;;;;;;;;;;10533763;28;20036;-85
2021/05/02 03:04:27;;;;;;;;;;;;;;;;;;10534024;28;20138;-84
2021/05/02 03:09:29;;;;;;;3.95;3.03;;;;;;;;;;10533417;28;19966;-84
2021/05/02 03:14:30;;;;;;;4.18;3.78;;;;;;;;;;10538756;28;20020;-84
2021/05/02 03:19:33;;;;;;;4.50;4.10;;;;;;;;;;10543265;28;20116;-84
2021/05/02 03:24:37;;;;;;;4.20;3.40;;;;;;;;;;10561267;28;20028;-84
2021/05/02 03:29:39;;;;;;;4.00;3.45;;;;;;;;;;10542826;28;20032;-85
2021/05/02 03:34:41;;;;;;;4.50;4.10;;;;;;;;;;10544182;28;20051;-84
2021/05/02 03:39:47;;;;;;;4.43;4.03;;;;;;;;;;10552571;28;20058;-84
2021/05/02 03:44:49;;;;;;;5.47;4.13;;;;;;;;;;10552746;28;20032;-83
2021/05/02 03:49:50;;;;;;;4.20;3.80;;;;;;;;;;10558592;28;20437;-84
2021/05/02 03:54:52;;;;;;;3.80;3.47;;;;;;;;;;10546318;28;20078;-84
2021/05/02 03:59:53;;;;;;;5.40;4.90;;;;;;;;;;10538335;28;20042;-84
2021/05/02 04:04:53;;;;;;;5.53;5.03;;;;;;;;;;10539998;28;20030;-83
2021/05/02 04:09:54;;;;;;;6.00;5.40;;;;;;;;;;10538759;28;20044;-83
2021/05/02 04:14:55;;;;;;;4.93;4.53;;;;;;;;;;10538611;28;20046;-83
2021/05/02 04:19:56;;;;;;;5.70;5.20;;;;;;;;;;10538136;28;20039;-85
2021/05/02 04:24:57;;;;;;;5.40;4.90;;;;;;;;;;10537549;28;20051;-85
2021/05/02 04:29:58;;;;;;;4.53;4.13;;;;;;;;;;10556136;28;20050;-84
2021/05/02 04:34:59;;;;;;;4.70;4.30;;;;;;;;;;10537095;28;20054;-84
2021/05/02 04:40:00;;;;;;;2.85;2.65;;;;;;;;;;10537646;28;20020;-84
2021/05/02 04:45:01;;;;;;;4.15;3.45;;;;;;;;;;10537230;28;20031;-84
2021/05/02 04:50:03;;;;;;;5.15;4.65;;;;;;;;;;10537052;28;20039;-83
2021/05/02 04:55:04;;;;;;;4.97;4.00;;;;;;;;;;10535828;28;20032;-82
2021/05/02 05:00:08;;;;;;;4.72;3.63;;;;;;;;;;10553636;28;20507;-82
2021/05/02 05:05:09;;;;;;;3.20;2.92;;;;;;;;;;10535676;28;20024;-82
2021/05/02 05:10:11;;;;;;;3.92;3.20;;;;;;;;;;10554293;28;20061;-82
2021/05/02 05:15:12;;;;;;;4.60;4.20;;;;;;;;;;10537436;28;20040;-84
2021/05/02 05:20:14;;;;;;;4.88;4.18;;;;;;;;;;10537002;28;20024;-83
2021/05/02 05:25:15;;;;;;;3.35;2.60;;;;;;;;;;10535823;28;20031;-82
2021/05/02 05:30:16;;;;;;;3.05;2.65;;;;;;;;;;10536560;28;20081;-83
2021/05/02 05:35:17;;;;;;;3.92;2.78;;;;;;;;;;10540007;28;20032;-81
2021/05/02 05:40:18;;;;;;;4.60;2.80;;;;;;;;;;10536618;28;20024;-82
2021/05/02 05:45:20;;;;;;;2.75;2.40;;;;;;;;;;10534098;28;20028;-83
2021/05/02 05:50:21;;;;;;;3.88;2.50;;;;;;;;;;10534147;28;20016;-83
2021/05/02 05:55:22;;;;;;;4.03;2.42;;;;;;;;;;10534954;28;20060;-82
2021/05/02 06:00:24;;;;;;;4.38;2.08;;;;;;;;;;10536265;28;20044;-83
2021/05/02 06:05:25;;;;;;;2.47;1.90;;;;;;;;;;10536107;28;20020;-82
2021/05/02 06:10:26;;;;;;;2.50;2.00;;;;;;;;;;10543673;28;20032;-83
2021/05/02 06:15:27;;;;;;;3.17;1.90;;;;;;;;;;10563274;28;20016;-82
2021/05/02 06:20:28;;;;;;;3.00;1.60;;;;;;;;;;10548942;28;20110;-82
2021/05/02 06:25:29;;;;;;;2.75;1.83;;;;;;;;;;10533502;28;20024;-82
2021/05/02 06:30:30;;;;;;;2.58;1.40;;;;;;;;;;10533989;28;20118;-83
2021/05/02 06:35:31;;;;;;;3.45;1.50;;;;;;;;;;10533074;28;20059;-83
2021/05/02 06:40:32;;;;;;;1.85;1.17;;;;;;;;;;10532911;28;20019;-83
2021/05/02 06:45:33;;;;;;;3.22;1.30;;;;;;;;;;10533113;28;20028;-82
2021/05/02 06:50:34;;;;;;;1.80;1.02;;;;;;;;;;10539549;28;20028;-84
2021/05/02 06:55:35;;;;;;;2.17;1.30;;;;;;;;;;10541938;28;20032;-84
2021/05/02 07:00:37;;;;;;;3.38;1.45;;;;;;;;;;10559108;28;20051;-83
2021/05/02 07:05:38;;;;;;;5.32;1.60;;;;;;;;;;10539969;28;20074;-84
2021/05/02 07:10:39;;;;;;;2.30;1.00;;;;;;;;;;10538894;28;20078;-83
2021/05/02 07:15:39;;;;;;;2.95;1.40;;;;;;;;;;10558874;28;20034;-84
2021/05/02 07:20:41;;;;;;;3.17;1.70;;;;;;;;;;10539513;28;20036;-83
2021/05/02 07:25:42;;;;;;;4.40;1.55;;;;;;;;;;10540014;28;20032;-83
2021/05/02 07:30:43;;;;;;;4.22;1.45;;;;;;;;;;10542993;28;20031;-83
2021/05/02 07:35:54;;;;;;;1.70;1.23;;;;;;;;;;10545513;28;20028;-82
2021/05/02 07:41:00;;;;;;;2.30;1.35;;;;;;;;;;10534984;28;20032;-82
2021/05/02 07:46:03;;;;;;;4.25;1.58;;;;;;;;;;10548159;28;20027;-83
2021/05/02 07:51:04;;;;;;;2.42;1.50;;;;;;;;;;10547894;28;20028;-82
2021/05/02 07:56:05;;;;;;;3.55;1.63;;;;;;;;;;10547644;28;20032;-81
2021/05/02 08:01:06;;;;;;;4.28;1.50;;;;;;;;;;10545436;28;20032;-82
2021/05/02 08:06:07;;;;;;;2.50;1.20;;;;;;;;;;10547422;28;20028;-83
2021/05/02 08:11:08;;;;;;;2.33;1.23;;;;;;;;;;10545378;28;20479;-83
2021/05/02 08:16:09;;;;;;;3.25;1.35;;;;;;;;;;10545293;28;20040;-81
2021/05/02 08:21:11;;;;;;;4.50;1.70;;;;;;;;;;10544627;28;20470;-82
2021/05/02 08:26:13;;;;;;;2.10;1.45;;;;;;;;;;10529737;28;20123;-82
2021/05/02 08:31:14;;;;;;;2.33;1.17;;;;;;;;;;10547028;28;20028;-82
2021/05/02 08:36:15;;;;;;;3.10;1.40;;;;;;;;;;10547679;28;20397;-82
2021/05/02 08:41:16;;;;;;;3.85;1.50;;;;;;;;;;10554102;28;20020;-82
2021/05/02 08:46:17;;;;;;;4.15;1.77;;;;;;;;;;10537819;28;20032;-83
2021/05/02 08:51:19;;;;;;;2.63;1.58;;;;;;;;;;10545718;28;20028;-82
2021/05/02 08:56:20;;;;;;;1.90;1.65;;;;;;;;;;10543429;28;20028;-81
2021/05/02 09:01:28;;;;;;;2.85;1.40;;;;;;;;;;10527567;28;20394;-82
2021/05/02 09:06:29;;;;;;;4.47;2.10;;;;;;;;;;10547019;28;20024;-82
2021/05/02 09:11:31;;;;;;;3.97;1.67;;;;;;;;;;10542126;28;20513;-82
2021/05/02 09:16:51;;;;;;;5.25;3.33;;;;;;;;;;10542989;28;20028;-82
2021/05/02 09:21:52;;;;;;;4.32;2.17;;;;;;;;;;10543636;28;20031;-82
2021/05/02 09:27:13;;;;;;;2.45;1.58;;;;;;;;;;10543282;28;20085;-82
2021/05/02 09:32:15;;;;;;;2.15;1.27;;;;;;;;;;10544170;28;20016;-81
2021/05/02 09:37:16;;;;;;;3.50;1.65;;;;;;;;;;10542928;28;20032;-82
2021/05/02 09:42:21;;;;;;;2.08;1.10;;;;;;;;;;10543766;28;20027;-82
2021/05/02 09:47:29;;;;;;;2.25;1.40;;;;;;;;;;10527602;28;20036;-82
2021/05/02 09:52:50;;;;;;;2.67;1.60;;;;;;;;;;10543803;28;20023;-83
2021/05/02 09:57:54;;;;;;;3.08;1.40;;;;;;;;;;10543799;28;20028;-82
2021/05/02 10:02:56;;;;;;;1.95;0.90;;;;;;;;;;10542867;28;20474;-81
2021/05/02 10:07:57;;;;;;;2.30;1.40;;;;;;;;;;10542305;28;20027;-81
2021/05/02 10:12:58;;;;;;;2.45;1.13;;;;;;;;;;10540662;28;20031;-81
2021/05/02 10:18:00;;;;;;;2.55;1.30;;;;;;;;;;10524130;28;20039;-81
2021/05/02 10:23:02;;;;;;;3.08;1.20;;;;;;;;;;10528659;28;20028;-81
2021/05/02 10:28:13;;;;;;;2.28;1.20;;;;;;;;;;10551558;28;20497;-82
2021/05/02 10:33:14;;;;;;;2.78;1.52;;;;;;;;;;10555139;28;20030;-81
2021/05/02 10:38:19;;;;;;;2.85;1.50;;;;;;;;;;10549330;28;20039;-81
2021/05/02 10:43:30;;;;;;;1.98;1.20;;;;;;;;;;10548908;28;20058;-81
2021/05/02 10:48:35;;;;;;;2.30;1.10;;;;;;;;;;10548475;28;20028;-80
2021/05/02 10:53:56;;;;;;;2.05;0.88;;;;;;;;;;10552364;28;20031;-82
2021/05/02 10:58:57;;;;;;;2.10;1.20;;;;;;;;;;10549889;28;20032;-83
2021/05/02 11:03:58;;;;;;;3.30;1.35;;;;;;;;;;10551666;28;20028;-86
2021/05/02 11:09:00;;;;;;;3.28;1.20;;;;;;;;;;10558484;28;20032;-84
2021/05/02 11:14:10;;;;;;;2.28;1.17;;;;;;;;;;10558214;28;20123;-83
2021/05/02 11:19:12;;;;;;;2.15;0.93;;;;;;;;;;10545564;28;20031;-84
2021/05/02 11:24:13;;;;;;;2.45;1.35;;;;;;;;;;10546887;28;20039;-83
2021/05/02 11:29:18;;;;;;;2.42;1.30;;;;;;;;;;10545796;28;20098;-82
2021/05/02 11:34:19;;;;;;;1.50;1.10;;;;;;;;;;10545324;28;20028;-83
2021/05/02 11:39:29;;;;;;;1.52;1.00;;;;;;;;;;10545632;28;20012;-82
2021/05/02 11:44:31;;;;;;;2.28;1.20;;;;;;;;;;10544666;28;20040;-84
2021/05/02 11:49:47;;;;;;;1.52;1.00;;;;;;;;;;10544203;28;20552;-83
2021/05/02 11:54:48;;;;;;;2.30;1.10;;;;;;;;;;10544322;28;20028;-84
2021/05/02 11:59:52;;;;;;;1.90;1.00;;;;;;;;;;10547975;28;20489;-85
2021/05/02 12:04:53;;;;;;;2.08;0.82;;;;;;;;;;10544142;28;20024;-82
2021/05/02 12:09:54;;;;;;;4.38;1.20;;;;;;;;;;10542691;28;20028;-83
2021/05/02 12:14:59;;;;;;;2.38;1.00;;;;;;;;;;10544048;28;20024;-83
2021/05/02 12:20:02;;;;;;;1.35;0.98;;;;;;;;;;10542970;28;20026;-83
2021/05/02 12:25:03;;;;;;;2.50;0.95;;;;;;;;;;10543442;28;20086;-83
2021/05/02 12:30:10;;;;;;;1.35;0.80;;;;;;;;;;10547815;28;20039;-84
2021/05/02 12:35:11;;;;;;;1.60;0.90;;;;;;;;;;10540867;28;20085;-83
2021/05/02 12:40:12;;;;;;;1.67;0.77;;;;;;;;;;10541615;28;20074;-83
2021/05/02 12:45:13;;;;;;;2.03;1.10;;;;;;;;;;10543977;28;20028;-83
2021/05/02 12:50:15;;;;;;;2.05;1.00;;;;;;;;;;10541224;28;20032;-82
2021/05/02 12:55:21;;;;;;;2.38;1.00;;;;;;;;;;10541405;28;20031;-84
2021/05/02 13:00:26;;;;;;;1.77;0.77;;;;;;;;;;10558662;28;20066;-83
2021/05/02 13:05:28;;;;;;;1.55;1.00;;;;;;;;;;10541964;28;20020;-83
2021/05/02 13:10:29;;;;;;;1.52;0.90;;;;;;;;;;10539644;28;20031;-83
2021/05/02 13:15:35;;;;;;;2.72;1.10;;;;;;;;;;10538491;28;20090;-83
2021/05/02 13:20:45;;;;;;;1.65;1.08;;;;;;;;;;10543345;28;20035;-83
2021/05/02 13:25:46;;;;;;;1.63;1.20;;;;;;;;;;10543869;28;20386;-83
2021/05/02 13:30:50;;;;;;;2.53;1.10;;;;;;;;;;10547110;28;20024;-83
2021/05/02 13:35:51;;;;;;;2.72;1.35;;;;;;;;;;10553810;28;20043;-84
2021/05/02 13:40:52;;;;;;;2.50;1.17;;;;;;;;;;10557353;28;20027;-84
2021/05/02 13:45:53;;;;;;;1.15;0.90;;;;;;;;;;10555126;28;20035;-84
2021/05/02 13:50:54;;;;;;;1.55;0.90;;;;;;;;;;10548920;28;20034;-84
2021/05/02 13:55:55;;;;;;;1.58;0.95;;;;;;;;;;10551510;28;20028;-82
2021/05/02 14:00:56;;;;;;;1.13;1.00;;;;;;;;;;10550866;28;20501;-84
2021/05/02 14:05:57;;;;;;;2.20;1.00;;;;;;;;;;10545377;28;20032;-84
2021/05/02 14:10:58;;;;;;;1.92;1.00;;;;;;;;;;10544446;28;20066;-83
2021/05/02 14:16:00;;;;;;;1.73;0.90;;;;;;;;;;10540046;28;20085;-83
2021/05/02 14:21:01;;;;;;;1.13;0.70;;;;;;;;;;10540613;28;20454;-84
2021/05/02 14:26:03;;;;;;;2.25;0.80;;;;;;;;;;10540704;28;20028;-83
2021/05/02 14:31:04;;;;;;;1.10;0.70;;;;;;;;;;10541040;28;20032;-83
2021/05/02 14:36:05;;;;;;;1.55;1.02;;;;;;;;;;10540367;28;20032;-84
2021/05/02 14:41:06;;;;;;;2.67;1.40;;;;;;;;;;10542365;28;20024;-83
2021/05/02 14:46:07;;;;;;;1.83;1.00;;;;;;;;;;10539770;28;20016;-83
2021/05/02 14:51:08;;;;;;;2.13;0.88;;;;;;;;;;10540181;28;20020;-83
2021/05/02 14:56:09;;;;;;;2.15;0.90;;;;;;;;;;10540313;28;20122;-83
2021/05/02 15:01:10;;;;;;;2.75;1.00;;;;;;;;;;10539881;28;20119;-83
2021/05/02 15:06:11;;;;;;;1.33;0.85;;;;;;;;;;10539783;28;20024;-84
2021/05/02 15:11:13;;;;;;;1.67;0.77;;;;;;;;;;10546918;28;20386;-82
2021/05/02 15:16:16;;;;;;;2.45;1.10;;;;;;;;;;10555610;28;20043;-83
2021/05/02 15:21:17;;;;;;;2.55;1.10;;;;;;;;;;10550834;28;20070;-85
2021/05/02 15:26:18;;;;;;;2.08;1.02;;;;;;;;;;10546481;28;20548;-83
2021/05/02 15:31:19;;;;;;;1.83;1.00;;;;;;;;;;10545556;28;20031;-84
2021/05/02 15:36:20;;;;;;;2.13;1.35;;;;;;;;;;10546780;28;20028;-84
2021/05/02 15:41:21;;;;;;;3.05;1.20;;;;;;;;;;10547403;28;20119;-84
2021/05/02 15:46:22;;;;;;;2.03;1.15;;;;;;;;;;10546161;28;20557;-83
2021/05/02 15:51:23;;;;;;;2.42;1.23;;;;;;;;;;10551595;28;20036;-84
2021/05/02 15:56:24;;;;;;;1.80;0.88;;;;;;;;;;10548117;28;20085;-85
2021/05/02 16:01:26;;;;;;;1.13;0.80;;;;;;;;;;10556570;28;20036;-84
2021/05/02 16:06:27;;;;;;;2.13;1.15;;;;;;;;;;10552599;28;20054;-84
2021/05/02 16:11:30;;;;;;;2.28;1.30;;;;;;;;;;10550660;28;20047;-84
2021/05/02 16:16:31;;;;;;;0.70;0.70;;;;;;;;;;10543274;28;20031;-84
2021/05/02 16:21:32;;;;;;;1.13;1.02;;;;;;;;;;10543880;28;20030;-84
2021/05/02 16:26:34;;;;;;;2.97;1.30;;;;;;;;;;10543268;28;20482;-84
2021/05/02 16:31:35;;;;;;;2.05;1.50;;;;;;;;;;10544583;28;20032;-85
2021/05/02 16:36:36;;;;;;;2.25;1.58;;;;;;;;;;10543400;28;20043;-84
2021/05/02 16:41:37;;;;;;;1.50;1.40;;;;;;;;;;10543412;28;20078;-84
2021/05/02 16:46:38;;;;;;;2.03;1.42;;;;;;;;;;10543668;28;20107;-83
2021/05/02 16:51:39;;;;;;;2.58;1.17;;;;;;;;;;10546088;28;20482;-85
2021/05/02 16:56:40;;;;;;;2.15;1.70;;;;;;;;;;10565929;28;20147;-84
2021/05/02 17:01:41;;;;;;;1.65;1.30;;;;;;;;;;10565292;28;20032;-85
2021/05/02 17:06:42;;;;;;;1.63;1.30;;;;;;;;;;10566645;28;20032;-84
2021/05/02 17:11:43;;;;;;;3.95;3.55;;;;;;;;;;10564886;28;20074;-85
2021/05/02 17:16:44;;;;;;;2.20;1.50;;;;;;;;;;10564046;28;20062;-84
2021/05/02 17:21:45;;;;;;;2.08;1.25;;;;;;;;;;10565847;28;20043;-84
2021/05/02 17:26:46;;;;;;;1.65;1.23;;;;;;;;;;10563690;28;20028;-84
2021/05/02 17:31:49;;;;;;;1.00;0.90;;;;;;;;;;10562708;28;20032;-85
2021/05/02 17:36:50;;;;;;;1.77;1.35;;;;;;;;;;10563404;28;20058;-84
2021/05/02 17:41:51;;;;;;;1.40;0.95;;;;;;;;;;10583025;28;20103;-84
2021/05/02 17:46:52;;;;;;;1.10;0.90;;;;;;;;;;10565161;28;20432;-84
2021/05/02 17:51:53;;;;;;;0.73;0.73;;;;;;;;;;10563897;28;20028;-85
2021/05/02 17:56:54;;;;;;;1.20;1.00;;;;;;;;;;10543650;28;20067;-85
2021/05/02 18:01:55;;;;;;;1.13;0.98;;;;;;;;;;10559576;28;20035;-86
2021/05/02 18:06:56;;;;;;;1.08;0.93;;;;;;;;;;10545454;28;20124;-84
2021/05/02 18:11:57;;;;;;;1.13;0.80;;;;;;;;;;10553830;28;20039;-83
2021/05/02 18:16:58;;;;;;;0.80;0.80;;;;;;;;;;10562923;28;20028;-83
2021/05/02 18:21:59;;;;;;;2.22;1.17;;;;;;;;;;10571617;28;20024;-85
2021/05/02 18:27:00;;;;;;;1.10;1.00;;;;;;;;;;10539284;28;20024;-85
2021/05/02 18:32:01;;;;;;;1.67;0.95;;;;;;;;;;10547842;28;20020;-85
2021/05/02 18:37:03;;;;;;;2.35;1.52;;;;;;;;;;10567008;28;20419;-85
2021/05/02 18:42:04;;;;;;;1.80;1.15;;;;;;;;;;10540332;28;20024;-85
2021/05/02 18:47:05;;;;;;;1.77;1.20;;;;;;;;;;10549145;28;20028;-85
2021/05/02 18:52:06;;;;;;;1.10;1.00;;;;;;;;;;10548396;28;20028;-85
2021/05/02 18:57:07;;;;;;;1.08;0.90;;;;;;;;;;10546709;28;20040;-85
2021/05/02 19:02:08;;;;;;;1.42;1.00;;;;;;;;;;10565885;28;20031;-85
2021/05/02 19:07:09;;;;;;;1.75;1.10;;;;;;;;;;10565783;28;20058;-84
2021/05/02 19:12:10;;;;;;;2.13;1.60;;;;;;;;;;10572703;28;20066;-86
2021/05/02 19:17:11;;;;;;;1.42;1.05;;;;;;;;;;10545613;28;20075;-85
2021/05/02 19:22:12;;;;;;;1.33;1.10;;;;;;;;;;10546067;28;20038;-85
2021/05/02 19:27:13;;;;;;;1.23;1.10;;;;;;;;;;10559661;28;20031;-85
2021/05/02 19:32:19;;;;;;;1.58;1.10;;;;;;;;;;10570616;28;20028;-84
2021/05/02 19:37:20;;;;;;;1.20;1.08;;;;;;;;;;10566752;28;20484;-84
2021/05/02 19:42:21;;;;;;;1.65;1.35;;;;;;;;;;10578751;28;20032;-84
2021/05/02 19:47:22;;;;;;;1.23;1.02;;;;;;;;;;10569616;28;20087;-84
2021/05/02 19:52:23;;;;;;;1.48;1.23;;;;;;;;;;10568932;28;20024;-83
2021/05/02 19:57:24;;;;;;;0.88;0.82;;;;;;;;;;10559371;28;20096;-85
2021/05/02 20:02:25;;;;;;;1.48;1.38;;;;;;;;;;10550174;28;20017;-84
2021/05/02 20:07:26;;;;;;;3.50;1.70;;;;;;;;;;10547806;28;20028;-83
2021/05/02 20:12:27;;;;;;;1.85;1.25;;;;;;;;;;10547855;28;20040;-84
2021/05/02 20:17:28;;;;;;;2.40;1.75;;;;;;;;;;10547751;28;20410;-84
